Main page
METAR-TAF:

METAR-TAF

Airports :

Tehran, Iran

Tehran Imam Khomeini International Airport

latitude: 35-24-58N, longitude: 51-09-08E, elevation: 1007 m

Current weather observation

The report was made 16 minutes ago, at 17:00 UTC
Wind 4 kt from the East/Southeast
Temperature 33°C
Humidity 12%
Pressure 1012 hPa
Visibility 10 km or more
no clouds below 1500 m and no cumulonimbus

METAR: OIIE 261700Z 11004KT CAVOK 33/00 Q1012

Time: 21:46 (17:16 UTC)

Forecast

The report was made 6 hours and 16 minutes ago, at 11:00 UTC
Forecast valid from 26 at 12 UTC to 27 at 18 UTC
Wind 8 kt from the West/Northwest
Visibility 10 km or more
no clouds below 1500 m and no cumulonimbus
Temporary
from 26 at 14 UTC to 26 at 20 UTC
Wind 19 kt from the East
Temporary
from 27 at 06 UTC to 27 at 12 UTC
Wind 17 kt from the Southeast

TAF: OIIE 261100Z 2612/2718 30004MPS CAVOK TEMPO 2614/2620 08010MPS TEMPO 2706/2712 14009MPS

Weather observations and forecasts of more than 4000 airports (METAR and TAF reports).

The available stations are represented by yellow and red dots on the map.

Hover mouse over dot to see the name of the station.

Then click to see weather observations and forecasts.

To change the map : click on the green buttons with a black cross to zoom in, on the green button with a dash to zoom out, or on the green arrows for adjacent maps.


METAR-TAF: